Time;durP1;ratioP1;P1;durP2;ratioP2;P2;SDS_P1;SDS_P2;PMS_P1;PMS_P2;Temp;Humidity;BMP_temperature;BMP_pressure;BME280_temperature;BME280_humidity;BME280_pressure;Samples;Min_cycle;Max_cycle;Signal;HPM_P1;HPM_P2
2023/01/24 00:00:20;;;;;;;;;;;;;;;0.64;89.05;103265.89;105035;1291;61357;-70
2023/01/24 00:03:11;;;;;;;;;;;;;;;0.64;89.02;103266.88;104963;1294;61171;-70
2023/01/24 00:05:57;;;;;;;;;;;;;;;0.65;89.08;103263.02;105004;1294;77972;-70
2023/01/24 00:08:44;;;;;;;;;;;;;;;0.65;89.06;103263.04;105002;1294;67331;-70
2023/01/24 00:11:30;;;;;;;;;;;;;;;0.64;89.04;103261.65;104976;1291;72422;-70
2023/01/24 00:14:16;;;;;;;;;;;;;;;0.65;89.09;103257.77;104974;1294;59742;-70
2023/01/24 00:17:02;;;;;;;;;;;;;;;0.66;89.06;103265.16;105004;1290;61377;-70
2023/01/24 00:19:48;;;;;;;;;;;;;;;0.66;88.97;103265.30;104962;1295;74408;-70
2023/01/24 00:22:34;;;;;;;;;;;;;;;0.65;89.00;103258.98;104971;1293;66229;-70
2023/01/24 00:25:20;;;;;;;;;;;;;;;0.66;89.02;103264.63;104971;1291;73950;-70
2023/01/24 00:28:06;;;;;;;;;;;;;;;0.67;89.06;103273.51;104945;1290;59776;-70
2023/01/24 00:30:52;;;;;;;;;;;;;;;0.68;89.07;103274.08;104968;1289;61873;-70
2023/01/24 00:33:39;;;;;;;;;;;;;;;0.68;89.06;103267.46;104926;1293;76400;-70
2023/01/24 00:36:25;;;;;;;;;;;;;;;0.69;89.07;103266.35;104821;1292;67220;-70
2023/01/24 00:39:11;;;;;;;;;;;;;;;0.69;88.97;103270.77;104957;1291;71313;-70
2023/01/24 00:41:57;;;;;;;;;;;;;;;0.67;88.96;103267.44;104814;1294;61733;-70
2023/01/24 00:44:43;;;;;;;;;;;;;;;0.66;89.00;103264.14;104966;1289;61167;-70
2023/01/24 00:47:29;;;;;;;;;;;;;;;0.65;89.01;103269.52;104937;1291;76013;-70
2023/01/24 00:50:15;;;;;;;;;;;;;;;0.66;88.98;103269.41;104900;1292;70034;-70
2023/01/24 00:53:02;;;;;;;;;;;;;;;0.66;89.00;103263.81;104938;1289;73956;-70
2023/01/24 00:55:48;;;;;;;;;;;;;;;0.66;89.01;103266.01;104838;1294;59138;-70
2023/01/24 00:58:34;;;;;;;;;;;;;;;0.66;89.06;103268.23;104949;1295;61222;-70
2023/01/24 01:01:21;;;;;;;;;;;;;;;0.68;89.03;103268.98;104864;1292;73401;-70
2023/01/24 01:04:07;;;;;;;;;;;;;;;0.68;89.04;103267.64;104962;1294;67253;-70
2023/01/24 01:06:53;;;;;;;;;;;;;;;0.69;88.97;103268.53;104973;1293;71284;-70
2023/01/24 01:09:39;;;;;;;;;;;;;;;0.67;88.98;103268.27;104963;1291;61070;-70
2023/01/24 01:12:25;;;;;;;;;;;;;;;0.67;88.99;103267.58;104932;1294;59647;-70
2023/01/24 01:15:11;;;;;;;;;;;;;;;0.68;89.04;103268.50;104997;1293;73326;-70
2023/01/24 01:17:57;;;;;;;;;;;;;;;0.67;88.98;103263.87;104959;1290;71928;-70
2023/01/24 01:20:50;;;;;;;;;;;;;;;0.69;89.03;103263.61;104852;1295;72102;-70
2023/01/24 01:23:36;;;;;;;;;;;;;;;0.68;89.00;103267.50;104888;1295;61292;-70
2023/01/24 01:26:23;;;;;;;;;;;;;;;0.68;89.02;103261.52;104939;1289;62839;-70
2023/01/24 01:29:09;;;;;;;;;;;;;;;0.67;88.95;103264.52;104880;1292;75971;-70
2023/01/24 01:31:55;;;;;;;;;;;;;;;0.65;88.90;103264.42;105014;1300;66734;-70
2023/01/24 01:34:41;;;;;;;;;;;;;;;0.63;88.93;103261.21;105012;1291;71107;-70
2023/01/24 01:37:27;;;;;;;;;;;;;;;0.63;88.95;103261.17;104991;1294;61369;-70
2023/01/24 01:40:13;;;;;;;;;;;;;;;0.64;88.96;103265.31;105039;1294;59747;-70
2023/01/24 01:42:59;;;;;;;;;;;;;;;0.64;88.97;103262.27;105019;1290;73560;-70
2023/01/24 01:45:47;;;;;;;;;;;;;;;0.64;89.02;103266.91;105010;1292;70451;-70
2023/01/24 01:48:36;;;;;;;;;;;;;;;0.65;89.08;103264.74;104892;1290;71164;-70
2023/01/24 01:51:27;;;;;;;;;;;;;;;0.65;88.96;103263.21;104982;1292;61129;-70
2023/01/24 01:54:19;;;;;;;;;;;;;;;0.65;89.02;103269.14;104989;1293;59778;-70
2023/01/24 01:57:08;;;;;;;;;;;;;;;0.64;88.95;103270.11;104820;1292;74339;-70
2023/01/24 02:00:00;;;;;;;;;;;;;;;0.62;88.95;103267.79;105029;1291;70116;-70
2023/01/24 02:02:50;;;;;;;;;;;;;;;0.63;89.00;103274.43;104892;1295;73204;-70
2023/01/24 02:05:36;;;;;;;;;;;;;;;0.61;88.96;103276.90;104970;1293;61263;-70
2023/01/24 02:08:22;;;;;;;;;;;;;;;0.61;89.00;103274.00;105019;1290;61125;-70
2023/01/24 02:17:22;;;;;;;;;;;;;;;0.60;89.03;103253.53;104814;1292;71749;-70
2023/01/24 02:20:11;;;;;;;;;;;;;;;0.57;88.95;103254.85;104793;1292;61172;-70
2023/01/24 02:22:57;;;;;;;;;;;;;;;0.58;89.04;103256.27;104995;1291;59391;-70
2023/01/24 02:25:46;;;;;;;;;;;;;;;0.60;89.15;103259.17;104994;1290;73670;-70
2023/01/24 02:28:33;;;;;;;;;;;;;;;0.60;89.06;103258.80;104963;1291;67329;-70
2023/01/24 02:31:19;;;;;;;;;;;;;;;0.59;89.11;103262.63;104908;1292;72005;-70
2023/01/24 02:34:05;;;;;;;;;;;;;;;0.60;89.09;103260.48;104920;1291;61200;-70
2023/01/24 02:36:56;;;;;;;;;;;;;;;0.60;89.10;103263.54;104958;1291;61141;-70
2023/01/24 02:39:45;;;;;;;;;;;;;;;0.59;89.06;103272.61;104909;1291;73899;-70
2023/01/24 02:42:35;;;;;;;;;;;;;;;0.57;89.01;103268.29;104960;1291;67282;-70
2023/01/24 02:45:26;;;;;;;;;;;;;;;0.57;89.05;103268.58;104863;1291;71538;-70
2023/01/24 02:48:12;;;;;;;;;;;;;;;0.56;89.04;103270.08;104639;1291;279022;-70
2023/01/24 02:54:03;;;;;;;;;;;;;;;0.57;89.10;103282.88;104907;1291;73570;-70
2023/01/24 02:59:54;;;;;;;;;;;;;;;0.59;89.13;103289.81;104916;1291;73419;-70
2023/01/24 03:02:40;;;;;;;;;;;;;;;0.59;89.08;103287.72;104892;1295;61268;-70
2023/01/24 03:05:39;;;;;;;;;;;;;;;0.57;89.08;103283.89;105066;1290;59516;-70
2023/01/24 03:08:28;;;;;;;;;;;;;;;0.57;89.08;103282.04;104906;1292;76038;-70
2023/01/24 03:11:14;;;;;;;;;;;;;;;0.56;89.05;103282.77;104932;1295;67311;-70
2023/01/24 03:35:34;;;;;;;;;;;;;;;0.53;89.07;103290.89;104806;1296;68550;-70
2023/01/24 03:41:25;;;;;;;;;;;;;;;0.52;88.98;103282.69;104919;1291;59750;-70
2023/01/24 03:44:12;;;;;;;;;;;;;;;0.50;89.03;103284.45;104767;1291;61177;-70
2023/01/24 03:46:58;;;;;;;;;;;;;;;0.50;89.02;103280.86;104966;1292;74281;-70
2023/01/24 03:52:48;;;;;;;;;;;;;;;0.51;89.07;103278.43;104944;1295;72709;-70
2023/01/24 03:55:34;;;;;;;;;;;;;;;0.53;89.12;103274.27;104831;1291;59453;-70
2023/01/24 03:58:21;;;;;;;;;;;;;;;0.52;89.07;103271.83;104887;1295;59906;-70
2023/01/24 04:01:07;;;;;;;;;;;;;;;0.51;89.12;103267.88;104920;1290;73437;-70
2023/01/24 04:03:53;;;;;;;;;;;;;;;0.51;89.07;103262.13;104918;1291;68978;-70
2023/01/24 04:06:39;;;;;;;;;;;;;;;0.52;89.11;103261.15;104894;1291;72398;-70
2023/01/24 04:09:25;;;;;;;;;;;;;;;0.51;89.04;103261.77;104929;1292;61146;-70
2023/01/24 04:12:11;;;;;;;;;;;;;;;0.46;88.97;103257.55;104918;1291;61518;-70
2023/01/24 04:14:57;;;;;;;;;;;;;;;0.44;88.97;103255.21;104931;1291;73187;-70
2023/01/24 04:17:44;;;;;;;;;;;;;;;0.44;89.00;103258.25;104853;1291;68040;-70
2023/01/24 04:20:31;;;;;;;;;;;;;;;0.41;88.97;103255.65;104917;1291;75393;-70
2023/01/24 04:23:17;;;;;;;;;;;;;;;0.40;89.03;103250.15;104794;1292;61281;-70
2023/01/24 04:26:03;;;;;;;;;;;;;;;0.40;89.10;103248.80;104911;1291;59377;-70
2023/01/24 04:28:49;;;;;;;;;;;;;;;0.40;89.04;103247.80;104901;1291;73374;-70
2023/01/24 04:31:35;;;;;;;;;;;;;;;0.40;88.99;103244.74;104908;1295;67923;-71
2023/01/24 04:34:21;;;;;;;;;;;;;;;0.39;88.98;103245.30;104976;1291;72126;-70
2023/01/24 04:37:07;;;;;;;;;;;;;;;0.36;88.97;103246.84;104829;1291;60155;-70
2023/01/24 04:39:53;;;;;;;;;;;;;;;0.36;89.04;103243.08;104991;1291;63204;-70
2023/01/24 04:42:39;;;;;;;;;;;;;;;0.34;89.02;103242.83;104971;1291;72783;-70
2023/01/24 04:45:25;;;;;;;;;;;;;;;0.31;88.98;103240.76;104978;1293;68636;-70
2023/01/24 04:48:11;;;;;;;;;;;;;;;0.30;88.99;103242.53;104970;1294;72346;-70
2023/01/24 04:51:00;;;;;;;;;;;;;;;0.31;88.99;103240.55;104973;1290;61115;-70
2023/01/24 04:53:47;;;;;;;;;;;;;;;0.31;89.04;103247.86;104988;1291;59158;-70
2023/01/24 04:56:33;;;;;;;;;;;;;;;0.31;89.02;103255.53;104954;1291;73132;-70
2023/01/24 04:59:19;;;;;;;;;;;;;;;0.31;88.97;103256.67;104962;1290;67494;-70
2023/01/24 05:02:05;;;;;;;;;;;;;;;0.30;88.99;103258.31;104946;1291;72145;-70
2023/01/24 05:04:52;;;;;;;;;;;;;;;0.29;88.87;103260.80;104933;1290;59178;-70
2023/01/24 05:07:38;;;;;;;;;;;;;;;0.29;89.02;103261.96;104967;1289;61244;-70
2023/01/24 05:10:24;;;;;;;;;;;;;;;0.28;88.93;103263.27;104974;1289;76433;-70
2023/01/24 05:13:10;;;;;;;;;;;;;;;0.27;88.95;103266.27;104934;1291;71489;-70
2023/01/24 05:15:56;;;;;;;;;;;;;;;0.27;88.91;103273.03;104834;1291;72123;-70
2023/01/24 05:18:42;;;;;;;;;;;;;;;0.26;88.95;103274.86;104794;1291;61189;-70
2023/01/24 05:21:29;;;;;;;;;;;;;;;0.27;88.96;103273.35;104931;1293;59363;-70
2023/01/24 05:24:15;;;;;;;;;;;;;;;0.27;88.94;103270.16;104835;1290;73252;-70
2023/01/24 05:27:01;;;;;;;;;;;;;;;0.27;88.92;103274.38;105001;1291;67840;-70
2023/01/24 05:29:47;;;;;;;;;;;;;;;0.27;88.91;103268.79;104948;1290;71163;-70
2023/01/24 05:32:33;;;;;;;;;;;;;;;0.27;88.92;103269.32;104880;1289;61300;-70
2023/01/24 05:35:20;;;;;;;;;;;;;;;0.27;88.92;103268.45;104995;1291;61069;-70
2023/01/24 05:38:07;;;;;;;;;;;;;;;0.27;88.91;103271.00;104774;1291;73331;-70
2023/01/24 05:40:53;;;;;;;;;;;;;;;0.26;88.88;103272.15;104924;1291;71892;-70
2023/01/24 05:43:39;;;;;;;;;;;;;;;0.25;88.88;103272.09;104917;1289;74829;-70
2023/01/24 05:46:25;;;;;;;;;;;;;;;0.24;88.82;103276.77;104886;1290;61271;-70
2023/01/24 05:49:11;;;;;;;;;;;;;;;0.24;88.85;103280.96;104942;1290;61282;-70
2023/01/24 05:51:57;;;;;;;;;;;;;;;0.26;88.94;103288.90;104938;1291;73465;-70
2023/01/24 05:54:43;;;;;;;;;;;;;;;0.25;88.96;103289.36;104969;1294;67207;-70
2023/01/24 05:57:30;;;;;;;;;;;;;;;0.25;88.91;103291.23;104993;1291;75823;-70
2023/01/24 06:00:16;;;;;;;;;;;;;;;0.27;88.93;103291.38;104980;1290;61187;-70
2023/01/24 06:03:04;;;;;;;;;;;;;;;0.27;88.97;103294.77;105004;1289;61088;-70
2023/01/24 06:05:53;;;;;;;;;;;;;;;0.27;88.86;103302.75;104839;1290;77431;-70
2023/01/24 06:08:40;;;;;;;;;;;;;;;0.23;88.77;103302.12;104969;1293;68905;-70
2023/01/24 06:11:27;;;;;;;;;;;;;;;0.22;88.86;103307.63;104859;1291;71895;-70
2023/01/24 06:14:13;;;;;;;;;;;;;;;0.23;88.92;103308.58;104982;1291;61244;-70
2023/01/24 06:16:59;;;;;;;;;;;;;;;0.25;88.92;103305.10;104952;1290;61124;-70
2023/01/24 06:19:45;;;;;;;;;;;;;;;0.24;88.85;103309.48;104765;1291;73476;-70
2023/01/24 06:22:41;;;;;;;;;;;;;;;0.23;88.90;103307.05;105013;1293;68972;-70
2023/01/24 06:25:27;;;;;;;;;;;;;;;0.26;88.91;103314.35;104922;1290;71611;-70
2023/01/24 06:28:13;;;;;;;;;;;;;;;0.25;88.94;103312.29;104803;1289;59904;-70
2023/01/24 06:31:03;;;;;;;;;;;;;;;0.27;88.95;103310.66;104923;1291;61174;-70
2023/01/24 06:34:05;;;;;;;;;;;;;;;0.27;88.88;103310.19;105936;1290;73531;-71
2023/01/24 06:37:03;;;;;;;;;;;;;;;0.25;88.80;103310.19;106032;1289;68605;-71
2023/01/24 06:39:51;;;;;;;;;;;;;;;0.26;88.85;103309.43;106045;1289;72286;-70
2023/01/24 06:42:37;;;;;;;;;;;;;;;0.28;88.85;103313.66;106021;1291;59046;-70
2023/01/24 06:45:23;;;;;;;;;;;;;;;0.28;88.79;103312.46;106003;1290;60526;-70
2023/01/24 06:48:09;;;;;;;;;;;;;;;0.26;88.70;103316.58;106061;1290;73381;-70
2023/01/24 06:50:55;;;;;;;;;;;;;;;0.27;88.73;103319.54;105908;1291;68069;-70
2023/01/24 06:53:41;;;;;;;;;;;;;;;0.30;88.80;103326.68;105936;1290;72269;-70
2023/01/24 06:56:27;;;;;;;;;;;;;;;0.32;88.80;103329.06;105982;1291;59041;-70
2023/01/24 06:59:12;;;;;;;;;;;;;;;0.32;88.73;103332.60;106007;1289;59270;-70
2023/01/24 07:01:58;;;;;;;;;;;;;;;0.31;88.66;103332.72;106013;1290;73505;-70
2023/01/24 07:04:44;;;;;;;;;;;;;;;0.30;88.68;103328.56;105805;1290;67511;-70
2023/01/24 07:07:30;;;;;;;;;;;;;;;0.31;88.69;103336.41;105919;1290;72838;-70
2023/01/24 07:10:16;;;;;;;;;;;;;;;0.32;88.67;103342.07;105769;1291;59156;-70
2023/01/24 07:13:02;;;;;;;;;;;;;;;0.32;88.71;103345.46;105926;1290;59439;-70
2023/01/24 07:15:48;;;;;;;;;;;;;;;0.34;88.71;103351.71;105915;1291;73412;-70
2023/01/24 07:18:34;;;;;;;;;;;;;;;0.35;88.65;103353.16;105992;1289;68269;-70
2023/01/24 07:21:20;;;;;;;;;;;;;;;0.33;88.57;103343.38;105989;1291;72229;-70
2023/01/24 07:24:12;;;;;;;;;;;;;;;0.36;88.73;103345.23;105881;1289;59434;-70
2023/01/24 07:26:58;;;;;;;;;;;;;;;0.38;88.74;103345.69;105914;1290;59348;-70
2023/01/24 07:29:44;;;;;;;;;;;;;;;0.40;88.77;103351.29;105835;1289;74547;-70
2023/01/24 07:32:30;;;;;;;;;;;;;;;0.42;88.82;103357.56;105929;1290;68892;-71
2023/01/24 07:35:16;;;;;;;;;;;;;;;0.46;88.84;103354.91;105918;1290;72621;-70
2023/01/24 07:38:02;;;;;;;;;;;;;;;0.48;88.80;103352.70;105919;1289;59276;-70
2023/01/24 07:40:48;;;;;;;;;;;;;;;0.50;88.78;103357.80;105810;1290;60017;-70
2023/01/24 07:43:34;;;;;;;;;;;;;;;0.51;88.73;103360.55;105917;1290;73656;-70
2023/01/24 07:46:20;;;;;;;;;;;;;;;0.51;88.71;103362.77;105997;1291;67474;-70
2023/01/24 07:49:06;;;;;;;;;;;;;;;0.54;88.80;103360.73;105899;1289;71339;-70
2023/01/24 07:51:52;;;;;;;;;;;;;;;0.56;88.75;103361.73;105920;1291;58976;-70
2023/01/24 07:54:38;;;;;;;;;;;;;;;0.59;88.74;103363.76;105904;1289;60342;-70
2023/01/24 07:57:24;;;;;;;;;;;;;;;0.62;88.83;103364.33;105913;1291;73346;-71
2023/01/24 08:00:10;;;;;;;;;;;;;;;0.65;88.78;103361.81;105894;1290;67461;-71
2023/01/24 08:02:56;;;;;;;;;;;;;;;0.69;88.82;103359.70;105921;1290;71288;-71
2023/01/24 08:05:42;;;;;;;;;;;;;;;0.73;88.84;103358.92;105918;1290;59456;-71
2023/01/24 08:08:27;;;;;;;;;;;;;;;0.74;88.76;103363.13;105965;1289;59720;-71
2023/01/24 08:11:17;;;;;;;;;;;;;;;0.77;88.79;103362.81;105874;1290;74482;-71
2023/01/24 08:14:02;;;;;;;;;;;;;;;0.81;88.83;103361.75;105831;1291;67694;-71
2023/01/24 08:16:49;;;;;;;;;;;;;;;0.85;88.80;103367.93;105985;1290;71232;-71
2023/01/24 08:19:35;;;;;;;;;;;;;;;0.87;88.79;103363.19;105880;1291;58981;-71
2023/01/24 08:22:21;;;;;;;;;;;;;;;0.89;88.78;103361.80;105959;1289;59722;-71
2023/01/24 08:25:07;;;;;;;;;;;;;;;0.92;88.74;103360.27;105955;1290;75107;-71
2023/01/24 08:27:53;;;;;;;;;;;;;;;0.90;88.59;103357.96;105940;1290;67360;-71
2023/01/24 08:30:39;;;;;;;;;;;;;;;0.88;88.53;103356.80;105961;1291;71734;-71
2023/01/24 08:33:25;;;;;;;;;;;;;;;0.92;88.71;103357.20;105945;1290;59075;-71
2023/01/24 08:36:12;;;;;;;;;;;;;;;0.97;88.81;103355.16;105965;1291;59328;-71
2023/01/24 08:38:57;;;;;;;;;;;;;;;1.01;88.73;103362.55;105967;1289;74616;-71
2023/01/24 08:41:45;;;;;;;;;;;;;;;1.03;88.70;103364.23;105981;1289;67195;-71
2023/01/24 08:44:31;;;;;;;;;;;;;;;1.05;88.58;103361.60;106000;1289;71407;-71
2023/01/24 08:47:17;;;;;;;;;;;;;;;1.07;88.58;103362.42;105896;1290;59351;-71
2023/01/24 08:50:03;;;;;;;;;;;;;;;1.09;88.62;103364.92;106011;1294;59018;-71
2023/01/24 08:52:53;;;;;;;;;;;;;;;1.10;88.57;103361.61;105987;1289;74928;-71
2023/01/24 08:55:39;;;;;;;;;;;;;;;1.15;88.63;103362.63;105912;1291;67707;-71
2023/01/24 08:58:25;;;;;;;;;;;;;;;1.20;88.68;103363.28;105925;1290;71283;-71
2023/01/24 09:01:11;;;;;;;;;;;;;;;1.21;88.58;103365.73;105892;1291;59316;-71
2023/01/24 09:03:59;;;;;;;;;;;;;;;1.22;88.49;103371.63;105970;1290;59225;-71
2023/01/24 09:06:45;;;;;;;;;;;;;;;1.24;88.55;103377.70;105924;1290;75417;-71
2023/01/24 09:09:30;;;;;;;;;;;;;;;1.27;88.57;103376.38;105114;1294;67314;-71
2023/01/24 09:12:16;;;;;;;;;;;;;;;1.28;88.45;103378.50;104958;1291;70725;-71
2023/01/24 09:15:04;;;;;;;;;;;;;;;1.30;88.43;103381.50;105002;1290;61213;-71
2023/01/24 09:17:50;;;;;;;;;;;;;;;1.28;88.37;103385.92;104935;1289;59009;-70
2023/01/24 09:20:36;;;;;;;;;;;;;;;1.25;88.29;103386.94;105027;1291;74113;-70
2023/01/24 09:23:22;;;;;;;;;;;;;;;1.22;88.30;103394.38;105075;1293;66595;-70
2023/01/24 09:26:08;;;;;;;;;;;;;;;1.23;88.46;103395.81;104959;1291;72349;-72
2023/01/24 09:28:57;;;;;;;;;;;;;;;1.24;88.45;103398.76;104997;1290;61223;-71
2023/01/24 09:31:44;;;;;;;;;;;;;;;1.23;88.41;103398.02;105013;1290;60488;-72
2023/01/24 09:34:30;;;;;;;;;;;;;;;1.25;88.47;103401.20;105030;1289;74929;-70
2023/01/24 09:37:17;;;;;;;;;;;;;;;1.27;88.40;103403.23;104968;1290;71397;-70
2023/01/24 09:40:04;;;;;;;;;;;;;;;1.29;88.45;103403.87;104967;1290;71436;-70
2023/01/24 09:43:10;;;;;;;;;;;;;;;1.30;88.47;103404.42;104969;1290;61226;-70
2023/01/24 09:46:16;;;;;;;;;;;;;;;1.29;88.46;103402.02;104902;1291;61229;-70
2023/01/24 09:49:08;;;;;;;;;;;;;;;1.30;88.35;103405.48;104896;1290;75089;-70
2023/01/24 09:51:55;;;;;;;;;;;;;;;1.30;88.33;103406.66;104923;1290;70027;-70
2023/01/24 09:54:51;;;;;;;;;;;;;;;1.29;88.33;103402.65;104974;1289;71375;-70
2023/01/24 09:57:52;;;;;;;;;;;;;;;1.28;88.25;103403.61;104943;1290;59341;-70
2023/01/24 10:00:39;;;;;;;;;;;;;;;1.26;88.21;103399.77;105037;1290;61173;-70
2023/01/24 10:03:25;;;;;;;;;;;;;;;1.27;88.23;103400.30;104931;1290;73219;-70
2023/01/24 10:06:16;;;;;;;;;;;;;;;1.30;88.23;103402.38;104981;1291;67206;-70
2023/01/24 10:09:08;;;;;;;;;;;;;;;1.32;88.19;103400.33;104986;1290;71100;-70
2023/01/24 10:12:14;;;;;;;;;;;;;;;1.30;88.18;103390.83;104978;1291;61150;-70
2023/01/24 10:15:10;;;;;;;;;;;;;;;1.33;88.23;103388.15;104639;1290;60551;-70
2023/01/24 10:17:59;;;;;;;;;;;;;;;1.39;88.18;103380.34;104951;1291;72556;-70
2023/01/24 10:21:11;;;;;;;;;;;;;;;1.37;88.05;103381.06;105015;1291;67454;-70
2023/01/24 10:23:59;;;;;;;;;;;;;;;1.43;88.30;103379.13;104985;1288;71769;-70
2023/01/24 10:26:48;;;;;;;;;;;;;;;1.50;88.25;103384.16;105022;1290;61292;-70
2023/01/24 10:29:37;;;;;;;;;;;;;;;1.52;88.11;103381.89;104905;1291;60060;-70
2023/01/24 10:32:33;;;;;;;;;;;;;;;1.52;88.12;103377.68;104979;1291;74890;-71
2023/01/24 10:35:23;;;;;;;;;;;;;;;1.55;88.14;103381.73;104971;1291;67473;-70
2023/01/24 10:38:13;;;;;;;;;;;;;;;1.59;88.16;103384.36;104885;1291;71965;-70
2023/01/24 10:41:11;;;;;;;;;;;;;;;1.60;88.12;103382.61;104906;1293;60397;-70
2023/01/24 10:44:02;;;;;;;;;;;;;;;1.63;88.18;103381.23;104902;1291;61727;-71
2023/01/24 10:46:51;;;;;;;;;;;;;;;1.66;88.22;103375.81;104743;1291;74389;-70
2023/01/24 10:49:39;;;;;;;;;;;;;;;1.69;88.20;103375.83;104948;1293;68236;-70
2023/01/24 10:52:25;;;;;;;;;;;;;;;1.72;88.15;103376.05;104932;1291;72934;-70
2023/01/24 10:55:30;;;;;;;;;;;;;;;1.76;88.18;103369.34;104893;1291;61140;-71
2023/01/24 10:58:20;;;;;;;;;;;;;;;1.82;88.24;103369.89;104969;1294;60507;-70
2023/01/24 11:01:20;;;;;;;;;;;;;;;1.83;87.98;103367.53;104936;1291;73344;-70
2023/01/24 11:04:25;;;;;;;;;;;;;;;1.79;87.85;103364.57;104821;1291;68883;-70
2023/01/24 11:07:26;;;;;;;;;;;;;;;1.79;87.89;103361.54;104960;1291;71207;-70
2023/01/24 11:10:30;;;;;;;;;;;;;;;1.81;87.92;103359.14;104976;1291;61291;-70
2023/01/24 11:13:33;;;;;;;;;;;;;;;1.86;87.98;103361.63;104969;1290;59465;-70
2023/01/24 11:16:21;;;;;;;;;;;;;;;1.90;88.08;103352.58;104848;1291;73106;-71
2023/01/24 11:19:20;;;;;;;;;;;;;;;1.90;87.85;103350.52;104840;1291;68687;-70
2023/01/24 11:22:23;;;;;;;;;;;;;;;1.88;87.87;103344.44;104994;1291;72604;-71
2023/01/24 11:25:14;;;;;;;;;;;;;;;1.88;87.73;103341.06;104938;1291;61275;-71
2023/01/24 11:28:00;;;;;;;;;;;;;;;1.86;87.58;103336.48;104995;1292;64194;-71
2023/01/24 11:30:46;;;;;;;;;;;;;;;1.83;87.59;103331.34;104976;1290;73628;-71
2023/01/24 11:33:46;;;;;;;;;;;;;;;1.84;87.70;103334.52;104910;1289;67688;-72
2023/01/24 11:36:38;;;;;;;;;;;;;;;1.84;87.67;103331.23;104935;1291;72540;-72
2023/01/24 11:39:25;;;;;;;;;;;;;;;1.84;87.70;103335.68;104906;1290;61164;-72
2023/01/24 11:42:20;;;;;;;;;;;;;;;1.87;87.76;103331.58;104973;1294;59738;-72
2023/01/24 11:45:25;;;;;;;;;;;;;;;1.92;87.90;103327.67;104971;1291;72692;-70
2023/01/24 11:48:11;;;;;;;;;;;;;;;1.99;87.90;103322.30;104944;1291;69450;-70
2023/01/24 11:51:15;;;;;;;;;;;;;;;2.00;87.85;103322.72;104959;1291;71278;-70
2023/01/24 11:54:27;;;;;;;;;;;;;;;2.02;87.75;103321.83;104978;1290;61241;-70
2023/01/24 11:57:17;;;;;;;;;;;;;;;1.98;87.67;103322.27;104970;1290;61368;-70
2023/01/24 12:00:16;;;;;;;;;;;;;;;2.01;87.77;103319.20;104983;1291;75048;-70
2023/01/24 12:03:11;;;;;;;;;;;;;;;1.97;87.55;103320.02;104976;1294;69110;-70
2023/01/24 12:06:07;;;;;;;;;;;;;;;1.92;87.47;103324.11;104972;1291;71215;-70
2023/01/24 12:09:02;;;;;;;;;;;;;;;1.88;87.43;103314.14;104966;1291;61278;-70
2023/01/24 12:12:08;;;;;;;;;;;;;;;1.90;87.50;103307.66;105036;1293;59138;-70
2023/01/24 12:14:54;;;;;;;;;;;;;;;1.95;87.64;103300.45;104927;1291;72886;-70
2023/01/24 12:17:40;;;;;;;;;;;;;;;1.99;87.75;103294.44;104947;1291;69938;-70
2023/01/24 12:20:50;;;;;;;;;;;;;;;1.96;87.58;103293.23;105021;1291;70225;-74
2023/01/24 12:23:45;;;;;;;;;;;;;;;1.96;87.65;103295.77;104421;1298;59892;-70
2023/01/24 12:26:51;;;;;;;;;;;;;;;1.96;87.58;103292.91;104447;1297;61703;-70
2023/01/24 12:30:03;;;;;;;;;;;;;;;1.99;87.71;103295.80;104442;1297;73128;-69
2023/01/24 12:32:53;;;;;;;;;;;;;;;2.03;87.72;103299.08;104318;1297;68606;-69
2023/01/24 12:35:42;;;;;;;;;;;;;;;2.04;87.56;103303.95;104453;1300;71230;-69
2023/01/24 12:38:49;;;;;;;;;;;;;;;2.06;87.75;103308.65;104460;1299;59727;-69
2023/01/24 12:41:36;;;;;;;;;;;;;;;2.09;87.63;103305.88;104447;1299;63505;-69
2023/01/24 12:44:22;;;;;;;;;;;;;;;2.08;87.57;103302.63;104430;1299;73288;-69
2023/01/24 12:47:25;;;;;;;;;;;;;;;2.10;87.65;103298.49;104172;1296;68255;-69
2023/01/24 12:50:30;;;;;;;;;;;;;;;2.10;87.55;103301.73;105332;1296;72066;-69
2023/01/24 12:53:15;;;;;;;;;;;;;;;2.11;87.60;103297.34;105381;1296;59300;-69
2023/01/24 12:56:16;;;;;;;;;;;;;;;2.13;87.65;103295.08;105435;1296;59372;-70
2023/01/24 12:59:02;;;;;;;;;;;;;;;2.15;87.61;103292.63;105448;1295;74272;-70
2023/01/24 13:02:03;;;;;;;;;;;;;;;2.16;87.61;103297.14;105869;1290;68575;-70
2023/01/24 13:04:58;;;;;;;;;;;;;;;2.15;87.60;103301.88;105980;1290;73022;-70
2023/01/24 13:07:43;;;;;;;;;;;;;;;2.18;87.63;103297.80;105909;1290;59262;-70
2023/01/24 13:10:48;;;;;;;;;;;;;;;2.17;87.48;103292.80;105544;1291;61168;-69
2023/01/24 13:13:47;;;;;;;;;;;;;;;2.14;87.47;103294.66;104917;1294;73474;-69
2023/01/24 13:16:44;;;;;;;;;;;;;;;2.13;87.44;103296.42;104941;1290;70029;-69
2023/01/24 13:19:33;;;;;;;;;;;;;;;2.11;87.41;103290.71;104965;1292;72541;-69
2023/01/24 13:22:38;;;;;;;;;;;;;;;2.12;87.50;103289.56;105007;1290;59310;-69
2023/01/24 13:25:27;;;;;;;;;;;;;;;2.12;87.47;103282.74;105005;1290;59386;-69
2023/01/24 13:28:29;;;;;;;;;;;;;;;2.10;87.44;103284.54;104865;1291;74888;-69
2023/01/24 13:31:24;;;;;;;;;;;;;;;2.09;87.48;103283.77;104950;1291;66609;-69
2023/01/24 13:34:14;;;;;;;;;;;;;;;2.09;87.49;103279.16;104999;1291;73030;-69
2023/01/24 13:37:01;;;;;;;;;;;;;;;2.09;87.50;103283.46;97893;1288;5003000;-69
2023/01/24 13:39:48;;;;;;;;;;;;;;;2.11;87.55;103283.71;105087;1291;61433;-69
2023/01/24 13:42:36;;;;;;;;;;;;;;;2.08;87.37;103284.74;104579;1294;78872;-69
2023/01/24 13:45:25;;;;;;;;;;;;;;;2.03;87.33;103287.87;105886;1290;67432;-69
2023/01/24 13:48:37;;;;;;;;;;;;;;;2.03;87.44;103285.64;105945;1293;71210;-69
2023/01/24 13:51:33;;;;;;;;;;;;;;;2.04;87.36;103282.13;105870;1290;58973;-69
2023/01/24 13:54:39;;;;;;;;;;;;;;;2.00;87.30;103285.48;105931;1291;60158;-69
2023/01/24 13:57:29;;;;;;;;;;;;;;;2.01;87.44;103282.45;105883;1289;74395;-69
2023/01/24 14:00:19;;;;;;;;;;;;;;;2.00;87.35;103274.59;106006;1289;67263;-69
2023/01/24 14:03:26;;;;;;;;;;;;;;;1.99;87.33;103274.55;105890;1291;72283;-69
2023/01/24 14:06:13;;;;;;;;;;;;;;;1.99;87.32;103270.60;105896;1289;58896;-69
2023/01/24 14:09:01;;;;;;;;;;;;;;;2.00;87.39;103269.13;105891;1290;60631;-69
2023/01/24 14:12:04;;;;;;;;;;;;;;;1.98;87.33;103261.55;105778;1292;73364;-69
2023/01/24 14:15:00;;;;;;;;;;;;;;;1.99;87.30;103263.13;105833;1291;67249;-69
2023/01/24 14:17:48;;;;;;;;;;;;;;;2.00;87.30;103264.70;105875;1293;71223;-69
2023/01/24 14:20:44;;;;;;;;;;;;;;;2.01;87.35;103261.37;105705;1290;59332;-69
2023/01/24 14:23:30;;;;;;;;;;;;;;;2.02;87.37;103262.61;105862;1289;58897;-69
2023/01/24 14:26:18;;;;;;;;;;;;;;;1.94;87.03;103265.05;105933;1294;74952;-69
2023/01/24 14:29:13;;;;;;;;;;;;;;;1.85;86.98;103265.84;105885;1291;67494;-69
2023/01/24 14:32:01;;;;;;;;;;;;;;;1.80;87.10;103266.20;105973;1292;71602;-69
2023/01/24 14:35:11;;;;;;;;;;;;;;;1.79;87.13;103269.02;105785;1293;59215;-69
2023/01/24 14:38:30;;;;;;;;;;;;;;;1.79;87.22;103262.73;105723;1290;59892;-69
2023/01/24 14:41:21;;;;;;;;;;;;;;;1.77;87.18;103259.54;105407;1297;74559;-69
2023/01/24 14:44:22;;;;;;;;;;;;;;;1.75;87.17;103255.85;105387;1297;68368;-69
2023/01/24 14:47:25;;;;;;;;;;;;;;;1.75;87.21;103251.93;105444;1296;71401;-69
2023/01/24 14:50:33;;;;;;;;;;;;;;;1.72;87.08;103250.70;104348;1297;299597;-70
2023/01/24 14:53:25;;;;;;;;;;;;;;;1.67;87.02;103248.05;104093;1296;61004;-69
2023/01/24 14:56:14;;;;;;;;;;;;;;;1.65;87.10;103248.75;104037;1295;73562;-69
2023/01/24 14:59:11;;;;;;;;;;;;;;;1.62;87.11;103251.10;104082;1296;67260;-69
2023/01/24 15:01:57;;;;;;;;;;;;;;;1.56;87.10;103251.09;103996;1300;73867;-69
2023/01/24 15:04:45;;;;;;;;;;;;;;;1.52;87.12;103256.98;104150;1299;61192;-69
2023/01/24 15:07:31;;;;;;;;;;;;;;;1.50;87.09;103259.04;105444;1297;60389;-70
2023/01/24 15:10:23;;;;;;;;;;;;;;;1.46;87.11;103256.59;105424;1300;74368;-70